• Join FlightAware (Why Join?)
  • Login
  • US Flag 
03:58AM EDT


 

Airport Tracker/Info


-or-


 

Live Flight TrackerFlight Track Log ✈ SWA180 ✈ 27-Feb-2012 ✈ KLAS - KHOU

Flight Track Log - Related Links

Times and Time Zones

All times are in EST time to prevent confusion due to time zone crossing. See the SWA180 flight status page for this flight to view local times or setup timezone preferences in your user account.

Time Position Orientation Groundspeed Altitude Reporting Facility
EST Latitude Longitude Course Direction KTS MPH feet Rate Location/Type
10:47PM 36.0747 -115.1758 270° West 161 185 3,100  Level Los Angeles Center
10:47PM 36.0750 -115.2194 229° Southwest 206 237 4,200 2,040 Climbing Los Angeles Center
10:48PM 36.0381 -115.2711 202° Southwest 228 262 6,400 2,100 Climbing Los Angeles Center
10:49PM 35.9797 -115.3000 169° South 249 287 8,300 1,860 Climbing Los Angeles Center
10:50PM 35.9483 -115.2928 138° Southeast 298 343 9,100 2,640 Climbing Los Angeles Center
10:51PM 35.8917 -115.2292 133° Southeast 319 367 12,400 2,760 Climbing Los Angeles Center
10:52PM 35.8369 -115.1556 130° Southeast 312 359 14,700 2,160 Climbing Los Angeles Center
10:53PM 35.7839 -115.0767 104° East 302 348 16,800 2,100 Climbing Los Angeles Center
10:54PM 35.7622 -114.9694 86° East 302 348 18,900 1,620 Climbing Los Angeles Center
10:55PM 35.7694 -114.8492 79° East 316 364 20,100 1,200 Climbing Los Angeles Center
10:56PM 35.7908 -114.7181 78° East 344 396 21,300 1,260 Climbing Los Angeles Center
10:57PM 35.8142 -114.5794 78° East 381 438 22,700 1,620 Climbing Los Angeles Center
10:58PM 35.8375 -114.4381 78° East 400 460 24,600 1,680 Climbing Los Angeles Center
10:59PM 35.8606 -114.2992 79° East 411 473 26,100 960 Climbing Los Angeles Center
11:00PM 35.8833 -114.1553 78° East 417 480 26,600 600 Climbing Los Angeles Center
11:01PM 35.9097 -113.9981 92° East 432 497 27,400 1,200 Climbing Los Angeles Center
11:02PM 35.9050 -113.8469 122° Southeast 445 512 29,000 1,560 Climbing Los Angeles Center
11:03PM 35.8464 -113.7308 121° Southeast 411 473 30,600 1,440 Climbing Los Angeles Center
11:04PM 35.7878 -113.6122 122° Southeast 394 453 31,900 1,020 Climbing Los Angeles Center
11:05PM 35.7203 -113.4811 121° Southeast 402 463 32,700 300 Climbing Los Angeles Center
11:07PM 35.5875 -113.2103 121° Southeast 417 480 33,000 60 Climbing Albuquerque Center
11:08PM 35.5269 -113.0858 121° Southeast 423 487 33,000  Level Albuquerque Center
11:09PM 35.4697 -112.9672 122° Southeast 423 487 33,000  Level Albuquerque Center
11:10PM 35.4086 -112.8456 122° Southeast 423 487 33,000  Level Albuquerque Center
11:11PM 35.3378 -112.7083 121° Southeast 423 487 33,000  Level Albuquerque Center
11:12PM 35.2783 -112.5875 123° Southeast 428 493 33,000  Level Albuquerque Center
11:13PM 35.2147 -112.4664 121° Southeast 428 493 33,000  Level Albuquerque Center
11:14PM 35.1531 -112.3431 121° Southeast 428 493 33,000  Level Albuquerque Center
11:15PM 35.0914 -112.2197 121° Southeast 428 493 33,100  Climbing Albuquerque Center
11:16PM 35.0297 -112.0969 122° Southeast 428 493 33,000 -60 Descending Albuquerque Center
11:17PM 34.9656 -111.9739 122° Southeast 433 498 33,000  Level Albuquerque Center
11:18PM 34.9033 -111.8514 122° Southeast 433 498 33,000  Level Albuquerque Center
11:19PM 34.8411 -111.7292 124° Southeast 428 493 33,000  Level Albuquerque Center
11:20PM 34.7767 -111.6119 121° Southeast 421 484 33,000  Level Albuquerque Center
11:21PM 34.7122 -111.4797 123° Southeast 434 499 33,000  Level Albuquerque Center
11:22PM 34.6475 -111.3578 122° Southeast 439 505 33,000  Level Albuquerque Center
11:23PM 34.5828 -111.2333 122° Southeast 439 505 33,000  Level Albuquerque Center
11:24PM 34.5297 -111.1300 122° Southeast 439 505 33,000  Level Albuquerque Center
11:25PM 34.4589 -110.9908 123° Southeast 445 512 33,000  Level Albuquerque Center
11:26PM 34.3917 -110.8644 123° Southeast 445 512 33,000 120 Level Albuquerque Center
11:27PM 34.3244 -110.7383 123° Southeast 445 512 33,300 480 Climbing Albuquerque Center
11:28PM 34.2469 -110.5947 122° Southeast 451 519 34,000 300 Climbing Albuquerque Center
11:29PM 34.1856 -110.4767 123° Southeast 457 526 34,000  Level Albuquerque Center
11:30PM 34.1178 -110.3511 122° Southeast 457 526 34,000  Level Albuquerque Center
11:31PM 34.0519 -110.2261 123° Southeast 452 520 34,000  Level Albuquerque Center
11:32PM 33.9858 -110.1036 123° Southeast 447 514 34,000  Level Albuquerque Center
11:33PM 33.9197 -109.9811 124° Southeast 447 514 34,000  Level Albuquerque Center
11:34PM 33.8514 -109.8592 122° Southeast 442 509 34,000 300 Level Albuquerque Center
11:35PM 33.7853 -109.7322 124° Southeast 447 514 34,600 480 Climbing Albuquerque Center
11:36PM 33.7147 -109.6053 123° Southeast 447 514 35,000 180 Climbing Albuquerque Center
11:37PM 33.6439 -109.4761 123° Southeast 447 514 35,000  Level Albuquerque Center
11:38PM 33.5753 -109.3500 123° Southeast 447 514 35,000  Level Albuquerque Center
11:39PM 33.5042 -109.2211 123° Southeast 447 514 35,000  Level Albuquerque Center
11:40PM 33.4372 -109.0978 123° Southeast 447 514 35,000  Level Albuquerque Center
11:41PM 33.3681 -108.9722 126° Southeast 447 514 35,000  Level Albuquerque Center
11:42PM 33.2925 -108.8489 122° Southeast 447 514 35,000  Level Albuquerque Center
11:43PM 33.2294 -108.7261 124° Southeast 452 520 35,000  Level Albuquerque Center
11:44PM 33.1597 -108.6011 125° Southeast 446 513 35,000  Level Albuquerque Center
11:45PM 33.0900 -108.4811 123° Southeast 446 513 35,000  Level Albuquerque Center
11:46PM 33.0222 -108.3564 124° Southeast 446 513 35,000  Level Albuquerque Center
11:47PM 32.9522 -108.2319 127° Southeast 446 513 35,000  Level Albuquerque Center
11:48PM 32.8781 -108.1150 123° Southeast 446 513 35,000  Level Albuquerque Center
11:49PM 32.8078 -107.9883 124° Southeast 446 513 35,000  Level Albuquerque Center
11:50PM 32.7394 -107.8669 125° Southeast 446 513 35,000  Level Albuquerque Center
11:51PM 32.6692 -107.7458 124° Southeast 446 513 35,000  Level Albuquerque Center
11:52PM 32.5986 -107.6222 124° Southeast 446 513 35,000 -60 Level Albuquerque Center
11:53PM 32.5300 -107.5014 124° Southeast 446 513 34,900  Descending Albuquerque Center
11:54PM 32.4592 -107.3783 124° Southeast 446 513 35,000  Climbing Albuquerque Center
11:55PM 32.3881 -107.2553 125° Southeast 446 513 35,000  Level Albuquerque Center
11:56PM 32.3086 -107.1206 124° Southeast 446 513 35,000  Level Albuquerque Center
11:57PM 32.2394 -106.9981 116° Southeast 446 513 35,000  Level Albuquerque Center
11:58PM 32.1847 -106.8633 102° East 446 513 35,000  Level Albuquerque Center
11:59PM 32.1569 -106.7042 101° East 457 526 35,000  Level Albuquerque Center
12:00AM 32.1311 -106.5475 101° East 475 547 35,000  Level Albuquerque Center
12:01AM 32.1028 -106.3836 102° East 497 572 35,000  Level Albuquerque Center
12:02AM 32.0742 -106.2247 102° East 497 572 35,000  Level Albuquerque Center
12:03AM 32.0456 -106.0661 101° East 502 578 35,000  Level Albuquerque Center
12:04AM 32.0208 -105.9219 101° East 502 578 35,000  Level Albuquerque Center
12:05AM 31.9939 -105.7633 102° East 502 578 35,000  Level Albuquerque Center
12:06AM 31.9644 -105.6000 102° East 507 583 35,000  Level Albuquerque Center
12:07AM 31.9350 -105.4417 102° East 507 583 35,000  Level Albuquerque Center
12:08AM 31.9050 -105.2811 102° East 502 578 35,000  Level Albuquerque Center
12:09AM 31.8750 -105.1183 102° East 502 578 35,000  Level Albuquerque Center
12:10AM 31.8469 -104.9578 102° East 508 585 35,000  Level Albuquerque Center
12:11AM 31.8186 -104.7972 102° East 508 585 35,000  Level Albuquerque Center
12:12AM 31.7881 -104.6347 103° East 508 585 35,000  Level Albuquerque Center
12:13AM 31.7572 -104.4747 104° East 508 585 35,000  Level Albuquerque Center
12:14AM 31.7239 -104.3122 103° East 508 585 35,000  Level Albuquerque Center
12:15AM 31.6928 -104.1550 101° East 502 578 35,000  Level Albuquerque Center
12:16AM 31.6653 -103.9950 104° East 502 578 35,000  Level Albuquerque Center
12:17AM 31.6314 -103.8306 104° East 507 583 35,000  Level Albuquerque Center
12:18AM 31.5975 -103.6739 102° East 507 583 35,000  Level Albuquerque Center
12:19AM 31.5650 -103.4975 103° East 507 583 35,000  Level Albuquerque Center
12:20AM 31.5325 -103.3358 103° East 507 583 35,000  Level Albuquerque Center
12:21AM 31.5022 -103.1767 104° East 507 583 35,000  Level Albuquerque Center
12:22AM 31.4672 -103.0153 103° East 507 583 35,000  Level Albuquerque Center
12:24AM 31.4108 -102.7333 104° East 507 583 35,000 -60 Level Houston Center
12:25AM 31.3781 -102.5767 103° East 507 583 34,900 -60 Descending Houston Center
12:26AM 31.3467 -102.4228 102° East 501 577 34,900  Level Houston Center
12:27AM 31.3147 -102.2472 104° East 501 577 35,000  Climbing Houston Center
12:28AM 31.2797 -102.0861 105° East 507 583 35,000  Level Houston Center
12:29AM 31.2453 -101.9369 104° East 495 570 35,000  Level Houston Center
12:30AM 31.2133 -101.7836 105° East 489 563 35,000  Level Houston Center
12:31AM 31.1789 -101.6300 104° East 484 557 35,000  Level Houston Center
12:32AM 31.1467 -101.4742 102° East 484 557 35,000  Level Houston Center
12:33AM 31.1181 -101.3214 105° East 484 557 35,000  Level Houston Center
12:34AM 31.0831 -101.1728 104° East 478 550 35,000  Level Houston Center
12:35AM 31.0500 -101.0194 104° East 484 557 35,000  Level Houston Center
12:36AM 31.0167 -100.8689 104° East 484 557 35,000  Level Houston Center
12:37AM 30.9833 -100.7158 105° East 484 557 35,000  Level Houston Center
12:38AM 30.9475 -100.5628 104° East 484 557 35,000  Level Houston Center
12:39AM 30.9142 -100.4053 105° East 489 563 35,000  Level Houston Center
12:40AM 30.8847 -100.2794 104° East 495 570 35,000  Level Houston Center
12:41AM 30.8475 -100.1119 105° East 490 564 35,000  Level Houston Center
12:42AM 30.8114 -99.9544 104° East 490 564 35,000  Level Houston Center
12:43AM 30.7756 -99.7922 106° East 502 578 35,000  Level Houston Center
12:44AM 30.7367 -99.6394 104° East 502 578 35,000  Level Houston Center
12:45AM 30.7019 -99.4825 105° East 502 578 35,000  Level Houston Center
12:46AM 30.6633 -99.3203 105° East 502 578 35,000  Level Houston Center
12:47AM 30.6264 -99.1633 106° East 502 578 35,000  Level Houston Center
12:48AM 30.5853 -99.0011 105° East 510 587 35,000  Level Houston Center
12:49AM 30.5444 -98.8297 106° East 510 587 35,000  Level Houston Center
12:50AM 30.5047 -98.6703 105° East 510 587 35,000  Level Houston Center
12:51AM 30.4672 -98.5089 105° East 504 580 35,000  Level Houston Center
12:52AM 30.4294 -98.3500 105° East 510 587 35,000  Level Houston Center
12:53AM 30.3914 -98.1886 106° East 510 587 35,000  Level Houston Center
12:54AM 30.3528 -98.0322 107° East 516 594 35,000  Level Houston Center
12:55AM 30.3103 -97.8711 106° East 514 592 35,000  Level Houston Center
12:56AM 30.2717 -97.7125 106° East 514 592 35,000  Level Houston Center
12:57AM 30.2328 -97.5539 106° East 514 592 35,000 -300 Level Houston Center
12:58AM 30.1956 -97.4006 106° East 506 582 34,400 -900 Descending Houston Center
12:59AM 30.1561 -97.2422 106° East 500 575 33,300 -1,020 Descending Houston Center
01:00AM 30.1167 -97.0842 107° East 505 581 32,400 -1,200 Descending Houston Center
01:01AM 30.0914 -96.9869 106° East 507 583 31,300 -2,340 Descending Houston Center
01:02AM 30.0497 -96.8217 107° East 511 588 28,400 -2,880 Descending Houston Center
01:03AM 30.0097 -96.6661 107° East 497 572 25,600 -2,700 Descending Houston Center
01:04AM 29.9711 -96.5206 113° Southeast 482 555 23,000 -2,700 Descending Houston Center
01:05AM 29.9197 -96.3839 113° Southeast 456 525 20,200 -2,580 Descending Houston Center
01:06AM 29.8700 -96.2500 113° Southeast 446 513 17,800 -2,520 Descending Houston Center
01:07AM 29.8222 -96.1211 112° Southeast 425 489 15,200 -2,580 Descending Houston Center
01:08AM 29.7781 -95.9972 113° Southeast 417 480 12,600 -2,280 Descending Houston Center
01:09AM 29.7358 -95.8831 113° Southeast 399 459 10,600 -1,260 Descending Houston Center
01:10AM 29.6972 -95.7786 139° Southeast 336 387 10,100 -960 Descending Houston Center
01:11AM 29.6344 -95.7164 140° Southeast 291 335 8,700 -1,620 Descending Houston Center
01:12AM 29.5736 -95.6567 142° Southeast 276 318 6,900 -1,740 Descending Houston Center
01:13AM 29.5147 -95.6044 142° Southeast 267 307 5,200 -1,200 Descending Houston Center
01:14AM 29.4617 -95.5569 99° East 230 265 4,500 -900 Descending Houston Center
01:15AM 29.4531 -95.4972 46° Northeast 233 268 3,400 -780 Descending Houston Center
01:16AM 29.4983 -95.4439 46° Northeast 216 249 3,000 -540 Descending Houston Center
01:17AM 29.5350 -95.3997 41° Northeast 190 219 2,400 -720 Descending Houston Center
01:18AM 29.5694 -95.3653 43° Northeast 161 185 1,600 -600 Descending Houston Center
01:19AM 29.5950 -95.3375 47° Northeast 142 163 1,300 -540 Descending Houston Center
01:20AM 29.6211 -95.3050 47° Northeast 134 154 600 -720 Descending Houston Center